Time;durP1;ratioP1;P1;durP2;ratioP2;P2;SDS_P1;SDS_P2;PMS_P1;PMS_P2;Temp;Humidity;BMP_temperature;BMP_pressure;BME280_temperature;BME280_humidity;BME280_pressure;Samples;Min_cycle;Max_cycle;Signal;HPM_P1;HPM_P2
2021/08/12 00:01:05;;;;;;;9.30;7.97;;;17.30;99.90;;;;;;5035213;28;20660;-92
2021/08/12 00:03:32;;;;;;;7.07;6.47;;;17.30;99.90;;;;;;5046963;28;20623;-90
2021/08/12 00:06:00;;;;;;;8.07;7.30;;;17.20;99.90;;;;;;5037641;28;20690;-91
2021/08/12 00:08:28;;;;;;;8.00;7.30;;;17.30;99.90;;;;;;5032271;28;20661;-91
2021/08/12 00:10:56;;;;;;;8.53;7.73;;;17.30;99.90;;;;;;5046415;28;21259;-91
2021/08/12 00:13:24;;;;;;;14.80;9.10;;;17.20;99.90;;;;;;5044833;28;20727;-91
2021/08/12 00:15:54;;;;;;;9.30;8.40;;;17.20;99.90;;;;;;5032627;28;20654;-91
2021/08/12 00:18:22;;;;;;;9.70;8.10;;;17.10;99.90;;;;;;5031586;28;20677;-91
2021/08/12 00:20:49;;;;;;;7.13;6.43;;;17.10;99.90;;;;;;5025301;28;20767;-90
2021/08/12 00:23:17;;;;;;;8.37;7.57;;;17.10;99.90;;;;;;5037392;28;21231;-91
2021/08/12 00:25:46;;;;;;;6.80;6.20;;;17.00;99.90;;;;;;5043174;28;20625;-90
2021/08/12 00:28:14;;;;;;;7.73;6.93;;;16.90;99.90;;;;;;5033626;28;21006;-91
2021/08/12 00:30:42;;;;;;;7.37;6.77;;;17.00;99.90;;;;;;5032373;28;20631;-91
2021/08/12 00:33:11;;;;;;;8.80;7.90;;;17.00;99.90;;;;;;5037512;28;20634;-91
2021/08/12 00:35:40;;;;;;;8.83;7.93;;;17.00;99.90;;;;;;5051918;28;20642;-90
2021/08/12 00:38:08;;;;;;;9.20;8.30;;;17.00;99.90;;;;;;5046711;28;20648;-90
2021/08/12 00:40:36;;;;;;;7.77;7.03;;;16.90;99.90;;;;;;5032001;28;20620;-90
2021/08/12 00:43:04;;;;;;;9.13;8.20;;;16.90;99.90;;;;;;5042012;28;20656;-91
2021/08/12 00:45:31;;;;;;;8.20;7.47;;;16.90;99.90;;;;;;5051846;28;20621;-90
2021/08/12 00:47:58;;;;;;;7.60;7.00;;;16.90;99.90;;;;;;5047801;28;20662;-91
2021/08/12 00:50:26;;;;;;;8.27;7.47;;;16.80;99.90;;;;;;5032154;28;20631;-90
2021/08/12 00:52:54;;;;;;;7.50;6.90;;;16.60;99.90;;;;;;5032702;28;20631;-90
2021/08/12 00:55:22;;;;;;;9.17;8.20;;;16.70;99.90;;;;;;5031247;28;20619;-91
2021/08/12 00:57:49;;;;;;;8.90;8.00;;;16.70;99.90;;;;;;5047816;28;20722;-91
2021/08/12 01:00:17;;;;;;;8.70;7.90;;;16.80;99.90;;;;;;5051499;28;20618;-90
2021/08/12 01:02:44;;;;;;;9.43;7.47;;;16.80;99.90;;;;;;5050397;28;21207;-90
2021/08/12 01:05:12;;;;;;;8.90;8.07;;;16.70;99.90;;;;;;5046619;28;20708;-90
2021/08/12 01:07:53;;;;;;;8.33;7.53;;;16.70;99.90;;;;;;5049140;28;20626;-90
2021/08/12 01:10:30;;;;;;;8.70;7.93;;;16.70;99.90;;;;;;5046482;28;20654;-90
2021/08/12 01:13:05;;;;;;;8.60;7.80;;;16.80;99.90;;;;;;5031675;28;21015;-91
2021/08/12 01:15:39;;;;;;;8.40;7.63;;;16.80;99.90;;;;;;5039668;28;20652;-90
2021/08/12 01:18:13;;;;;;;7.90;7.20;;;16.80;99.90;;;;;;5037149;28;20663;-90
2021/08/12 01:21:06;;;;;;;9.57;8.70;;;16.90;99.90;;;;;;5042016;28;20689;-89
2021/08/12 01:23:37;;;;;;;9.77;8.93;;;17.00;99.90;;;;;;5028630;28;20638;-88
2021/08/12 01:26:08;;;;;;;9.13;7.70;;;17.00;99.90;;;;;;5050932;28;20656;-90
2021/08/12 01:28:42;;;;;;;9.10;8.30;;;16.90;99.90;;;;;;5033737;28;20627;-90
2021/08/12 01:31:47;;;;;;;9.17;7.70;;;16.90;99.90;;;;;;5032584;28;20656;-89
2021/08/12 01:34:23;;;;;;;7.97;7.20;;;16.80;99.90;;;;;;5001009;28;20640;-90
2021/08/12 01:36:54;;;;;;;9.30;7.53;;;16.80;99.90;;;;;;5038278;28;20750;-90
2021/08/12 01:39:25;;;;;;;7.83;7.13;;;16.70;99.90;;;;;;5048069;28;20629;-89
2021/08/12 01:41:55;;;;;;;8.40;7.70;;;16.70;99.90;;;;;;5050635;28;21203;-90
2021/08/12 01:44:26;;;;;;;9.40;8.43;;;16.60;99.90;;;;;;5039500;28;20641;-90
2021/08/12 01:46:55;;;;;;;13.63;8.63;;;16.60;99.90;;;;;;5031099;28;20714;-90
2021/08/12 01:49:25;;;;;;;9.50;8.70;;;16.60;99.90;;;;;;5030436;28;20647;-89
2021/08/12 01:51:59;;;;;;;8.30;7.60;;;16.50;99.90;;;;;;5032102;28;21228;-90
2021/08/12 01:54:37;;;;;;;7.93;7.13;;;16.50;99.90;;;;;;5031824;28;20659;-90
2021/08/12 01:57:07;;;;;;;8.50;7.67;;;16.50;99.90;;;;;;5030724;28;20687;-90
2021/08/12 01:59:35;;;;;;;8.53;7.73;;;16.40;99.90;;;;;;5030735;28;20718;-90
2021/08/12 02:02:05;;;;;;;10.03;9.03;;;16.40;99.90;;;;;;5030450;28;21044;-90
2021/08/12 02:04:34;;;;;;;7.80;7.13;;;16.40;99.90;;;;;;5042493;28;21197;-89
2021/08/12 02:07:06;;;;;;;8.00;7.20;;;16.40;99.90;;;;;;5046524;28;20624;-89
2021/08/12 02:09:36;;;;;;;8.10;7.40;;;16.30;99.90;;;;;;5049280;28;20650;-89
2021/08/12 02:12:09;;;;;;;10.83;8.13;;;16.40;99.90;;;;;;5048632;28;20732;-89
2021/08/12 02:14:40;;;;;;;7.83;7.10;;;16.40;99.90;;;;;;5049981;28;20615;-89
2021/08/12 02:17:07;;;;;;;8.30;7.60;;;16.50;99.90;;;;;;5050869;28;21214;-90
2021/08/12 02:19:36;;;;;;;8.87;8.07;;;16.50;99.90;;;;;;5049468;28;20691;-90
2021/08/12 02:22:13;;;;;;;8.70;7.80;;;16.50;99.90;;;;;;5043542;28;20720;-89
2021/08/12 02:24:49;;;;;;;7.87;7.13;;;16.60;99.90;;;;;;5030563;28;20650;-89
2021/08/12 02:27:21;;;;;;;8.40;7.70;;;16.60;99.90;;;;;;5035232;28;21050;-90
2021/08/12 02:29:51;;;;;;;11.73;7.40;;;16.50;99.90;;;;;;5031062;28;20627;-89
2021/08/12 02:32:24;;;;;;;9.00;8.10;;;16.50;99.90;;;;;;5030764;28;20626;-89
2021/08/12 02:34:54;;;;;;;8.70;7.90;;;16.60;99.90;;;;;;5049391;28;20734;-89
2021/08/12 02:37:26;;;;;;;9.30;7.87;;;16.50;99.90;;;;;;5032834;28;21285;-90
2021/08/12 02:39:57;;;;;;;10.40;8.13;;;16.60;99.90;;;;;;5027565;28;20685;-90
2021/08/12 02:42:27;;;;;;;8.60;7.70;;;16.50;99.90;;;;;;5031792;28;20611;-90
2021/08/12 02:45:00;;;;;;;10.40;8.50;;;16.50;99.90;;;;;;5034940;28;21007;-89
2021/08/12 02:47:30;;;;;;;9.00;8.13;;;16.50;99.90;;;;;;5034238;28;20627;-90
2021/08/12 02:50:02;;;;;;;7.80;7.00;;;16.50;99.90;;;;;;5040825;28;20627;-90
2021/08/12 02:52:33;;;;;;;8.13;7.43;;;16.50;99.90;;;;;;5053648;28;20691;-91
2021/08/12 02:55:03;;;;;;;9.10;7.90;;;16.50;99.90;;;;;;5052626;28;20734;-90
2021/08/12 02:57:31;;;;;;;9.17;8.33;;;16.60;99.90;;;;;;5054058;28;20688;-90
2021/08/12 02:59:59;;;;;;;8.77;7.97;;;16.50;99.90;;;;;;5054350;28;20618;-89
2021/08/12 03:02:26;;;;;;;8.00;6.73;;;16.50;99.90;;;;;;5053268;28;20628;-89
2021/08/12 03:04:54;;;;;;;8.70;7.87;;;16.40;99.90;;;;;;5035224;28;20610;-89
2021/08/12 03:07:23;;;;;;;8.50;7.70;;;16.40;99.90;;;;;;5035586;28;21331;-89
2021/08/12 03:09:53;;;;;;;9.93;7.40;;;16.40;99.90;;;;;;5034267;28;20665;-89
2021/08/12 03:12:21;;;;;;;7.80;7.00;;;16.40;99.90;;;;;;5033543;28;20631;-89
2021/08/12 03:14:50;;;;;;;8.27;7.57;;;16.40;99.90;;;;;;5033575;28;20622;-89
2021/08/12 03:17:19;;;;;;;8.23;7.53;;;16.50;99.90;;;;;;5033923;28;20650;-89
2021/08/12 03:19:46;;;;;;;17.27;8.47;;;16.50;99.90;;;;;;5033565;28;20617;-89
2021/08/12 03:22:14;;;;;;;7.80;7.07;;;16.40;99.90;;;;;;5040998;28;21261;-89
2021/08/12 03:24:46;;;;;;;9.50;7.80;;;16.40;99.90;;;;;;5052811;28;20617;-90
2021/08/12 03:27:16;;;;;;;9.03;8.23;;;16.40;99.90;;;;;;5045941;28;20627;-90
2021/08/12 03:29:46;;;;;;;8.83;8.13;;;16.40;99.90;;;;;;5033359;28;21183;-90
2021/08/12 03:32:13;;;;;;;8.37;7.70;;;16.40;99.90;;;;;;5049312;28;21206;-91
2021/08/12 03:34:40;;;;;;;8.90;8.10;;;16.40;99.90;;;;;;5053440;28;20606;-89
2021/08/12 03:37:07;;;;;;;7.77;6.80;;;16.40;99.90;;;;;;5038220;28;20642;-90
2021/08/12 03:39:34;;;;;;;8.70;8.00;;;16.40;99.90;;;;;;5041398;28;20732;-90
2021/08/12 03:42:01;;;;;;;8.30;7.50;;;16.40;99.90;;;;;;5032923;28;20619;-90
2021/08/12 03:44:30;;;;;;;7.73;7.00;;;16.40;99.90;;;;;;5033490;28;21207;-89
2021/08/12 03:46:57;;;;;;;8.70;7.80;;;16.30;99.90;;;;;;5033209;28;21168;-90
2021/08/12 03:49:24;;;;;;;9.07;8.27;;;16.30;99.90;;;;;;5033827;28;20706;-89
2021/08/12 03:51:51;;;;;;;8.80;8.00;;;16.30;99.90;;;;;;5041616;28;20678;-89
2021/08/12 03:54:18;;;;;;;8.83;8.13;;;16.30;99.90;;;;;;5035181;28;20639;-89
2021/08/12 03:56:45;;;;;;;9.37;8.57;;;16.30;99.90;;;;;;5032641;28;21021;-89
2021/08/12 03:59:12;;;;;;;8.03;7.23;;;16.30;99.90;;;;;;5032992;28;20977;-88
2021/08/12 04:01:41;;;;;;;12.50;8.30;;;16.20;99.90;;;;;;5032901;28;20963;-89
2021/08/12 04:04:08;;;;;;;8.90;8.13;;;16.20;99.90;;;;;;5035075;28;20627;-89
2021/08/12 04:06:35;;;;;;;8.67;7.87;;;16.20;99.90;;;;;;5053794;28;20676;-89
2021/08/12 04:09:03;;;;;;;11.13;8.90;;;16.20;99.90;;;;;;5054413;28;20668;-89
2021/08/12 04:11:30;;;;;;;8.60;7.80;;;16.20;99.90;;;;;;5053107;28;20615;-88
2021/08/12 04:13:57;;;;;;;8.17;7.37;;;16.20;99.90;;;;;;5043781;28;20606;-89
2021/08/12 04:16:24;;;;;;;10.17;8.00;;;16.20;99.90;;;;;;5036577;28;20650;-89
2021/08/12 04:18:52;;;;;;;9.80;8.80;;;16.10;99.90;;;;;;5042050;28;20615;-89
2021/08/12 04:21:19;;;;;;;8.80;7.50;;;16.00;99.90;;;;;;5051120;28;20653;-88
2021/08/12 04:23:46;;;;;;;9.60;8.70;;;16.00;99.90;;;;;;5051452;28;20619;-89
2021/08/12 04:26:13;;;;;;;8.63;7.83;;;16.00;99.90;;;;;;5036262;28;20615;-89
2021/08/12 04:28:40;;;;;;;9.50;8.10;;;16.00;99.90;;;;;;5043526;28;20616;-89
2021/08/12 04:31:07;;;;;;;11.70;8.10;;;16.00;99.90;;;;;;5032113;28;20685;-89
2021/08/12 04:33:34;;;;;;;11.53;7.80;;;16.00;99.90;;;;;;5032985;28;20619;-89
2021/08/12 04:36:02;;;;;;;8.33;7.57;;;15.90;99.90;;;;;;5032435;28;20638;-89
2021/08/12 04:38:29;;;;;;;10.43;8.37;;;15.90;99.90;;;;;;5031975;28;20666;-89
2021/08/12 04:40:56;;;;;;;9.10;8.17;;;15.90;99.90;;;;;;5032340;28;20986;-89
2021/08/12 04:43:23;;;;;;;9.20;8.30;;;16.00;99.90;;;;;;5041327;28;20619;-89
2021/08/12 04:45:50;;;;;;;8.03;7.27;;;16.00;99.90;;;;;;5045687;28;20638;-88
2021/08/12 04:48:17;;;;;;;12.80;7.93;;;15.90;99.90;;;;;;5051705;28;20607;-89
2021/08/12 04:50:44;;;;;;;12.67;8.70;;;15.90;99.90;;;;;;5052059;28;20622;-89
2021/08/12 04:53:12;;;;;;;9.23;8.23;;;16.00;99.90;;;;;;5048933;28;20623;-88
2021/08/12 04:55:39;;;;;;;9.87;7.60;;;16.10;99.90;;;;;;5032237;28;20714;-88
2021/08/12 04:58:06;;;;;;;9.93;9.03;;;16.10;99.90;;;;;;5031744;28;20658;-88
2021/08/12 05:00:34;;;;;;;10.70;8.83;;;16.10;99.90;;;;;;5031957;28;20645;-89
2021/08/12 05:03:01;;;;;;;9.33;8.50;;;16.20;99.90;;;;;;5031401;28;20669;-88
2021/08/12 05:05:28;;;;;;;13.93;9.43;;;16.30;99.90;;;;;;5047160;28;20675;-89
2021/08/12 05:07:55;;;;;;;12.20;8.50;;;16.40;99.90;;;;;;5049630;28;20672;-89
2021/08/12 05:10:24;;;;;;;10.70;8.90;;;16.50;99.90;;;;;;5044843;28;20645;-88
2021/08/12 05:12:52;;;;;;;15.00;9.80;;;16.60;99.90;;;;;;5050350;28;20614;-88
2021/08/12 05:15:19;;;;;;;14.00;8.93;;;16.70;99.90;;;;;;5036247;28;20677;-89
2021/08/12 05:17:46;;;;;;;11.97;8.10;;;16.70;99.90;;;;;;5031339;28;20640;-88
2021/08/12 05:20:13;;;;;;;9.50;8.23;;;16.80;99.90;;;;;;5048635;28;20619;-88
2021/08/12 05:22:40;;;;;;;9.57;8.47;;;16.80;99.90;;;;;;5048590;28;20628;-88
2021/08/12 05:25:08;;;;;;;14.40;9.03;;;16.80;99.90;;;;;;5051403;28;20633;-89
2021/08/12 05:27:36;;;;;;;9.60;8.60;;;16.80;99.90;;;;;;5048719;28;20632;-88
2021/08/12 05:30:04;;;;;;;9.83;8.20;;;16.80;99.90;;;;;;5027188;28;20693;-89
2021/08/12 05:32:31;;;;;;;8.20;7.50;;;16.80;99.90;;;;;;5045799;28;20634;-89
2021/08/12 05:34:58;;;;;;;8.87;7.93;;;16.90;99.90;;;;;;5046849;28;20704;-88
2021/08/12 05:37:25;;;;;;;9.57;8.67;;;16.90;99.90;;;;;;5042344;28;20631;-88
2021/08/12 05:39:52;;;;;;;10.43;7.80;;;16.90;99.90;;;;;;5028850;28;20744;-88
2021/08/12 05:42:19;;;;;;;9.63;8.70;;;16.90;99.90;;;;;;5029198;28;21008;-88
2021/08/12 05:44:51;;;;;;;8.67;7.77;;;16.90;99.90;;;;;;5030713;28;21034;-88
2021/08/12 05:47:18;;;;;;;9.60;8.00;;;16.90;99.90;;;;;;5029302;28;20616;-88
2021/08/12 05:49:45;;;;;;;9.63;8.60;;;17.00;99.90;;;;;;5030982;28;20625;-89
2021/08/12 05:52:12;;;;;;;9.53;7.50;;;17.10;99.90;;;;;;5050110;28;21222;-88
2021/08/12 05:54:39;;;;;;;7.90;7.10;;;17.20;99.90;;;;;;5049709;28;21152;-88
2021/08/12 05:57:06;;;;;;;8.80;7.90;;;17.30;99.90;;;;;;5032750;28;20636;-88
2021/08/12 05:59:33;;;;;;;9.53;8.00;;;17.40;99.90;;;;;;5043843;28;20629;-89
2021/08/12 06:02:02;;;;;;;10.47;7.70;;;17.60;99.90;;;;;;5031221;28;20950;-88
2021/08/12 06:04:29;;;;;;;9.63;8.67;;;17.70;99.90;;;;;;5031463;28;20616;-88
2021/08/12 06:06:56;;;;;;;11.47;8.97;;;17.90;99.90;;;;;;5030133;28;20680;-88
2021/08/12 06:09:23;;;;;;;10.13;8.10;;;17.90;99.90;;;;;;5036865;28;20620;-88
2021/08/12 06:11:50;;;;;;;10.23;7.07;;;17.90;99.90;;;;;;5043175;28;21189;-89
2021/08/12 06:14:16;;;;;;;10.80;7.30;;;17.90;99.90;;;;;;5038139;28;20636;-89
2021/08/12 06:16:43;;;;;;;9.50;8.50;;;18.00;99.90;;;;;;5047186;28;20639;-88
2021/08/12 06:19:12;;;;;;;9.40;7.57;;;18.00;99.90;;;;;;5034319;28;20628;-88
2021/08/12 06:21:40;;;;;;;10.07;9.03;;;18.00;99.90;;;;;;5033993;28;20610;-88
2021/08/12 06:24:07;;;;;;;10.17;8.93;;;18.10;99.90;;;;;;5042167;28;20625;-86
2021/08/12 06:26:34;;;;;;;9.53;8.50;;;18.20;99.90;;;;;;5051624;28;21066;-89
2021/08/12 06:29:01;;;;;;;9.00;8.10;;;18.20;99.90;;;;;;5035040;28;20614;-88
2021/08/12 06:31:28;;;;;;;16.30;8.73;;;18.30;99.90;;;;;;5036867;28;20657;-87
2021/08/12 06:33:55;;;;;;;10.83;8.60;;;18.40;99.90;;;;;;5043676;28;20625;-87
2021/08/12 06:36:23;;;;;;;9.93;8.93;;;18.40;99.90;;;;;;5037032;28;20675;-88
2021/08/12 06:38:52;;;;;;;13.20;9.10;;;18.50;99.90;;;;;;5042969;28;21523;-87
2021/08/12 06:41:18;;;;;;;11.10;9.03;;;18.50;99.90;;;;;;5042772;28;20631;-87
2021/08/12 06:43:45;;;;;;;10.07;9.17;;;18.80;99.90;;;;;;5041510;28;20617;-88
2021/08/12 06:46:12;;;;;;;10.23;8.10;;;18.90;99.90;;;;;;5042490;28;20627;-86
2021/08/12 06:48:39;;;;;;;9.43;8.40;;;19.00;99.90;;;;;;5042703;28;20601;-88
2021/08/12 06:51:06;;;;;;;10.47;8.30;;;19.10;99.90;;;;;;5043847;28;20611;-88
2021/08/12 06:53:35;;;;;;;9.40;8.40;;;19.20;99.90;;;;;;5042842;28;20614;-88
2021/08/12 06:56:03;;;;;;;9.77;7.93;;;19.40;99.90;;;;;;5041372;28;20630;-87
2021/08/12 06:58:30;;;;;;;14.30;8.30;;;19.60;99.90;;;;;;5042399;28;20669;-87
2021/08/12 07:00:57;;;;;;;8.50;7.60;;;19.80;99.90;;;;;;5046136;28;20618;-87
2021/08/12 07:03:24;;;;;;;10.40;8.20;;;19.90;99.90;;;;;;5053496;28;20610;-88
2021/08/12 07:05:51;;;;;;;10.27;7.80;;;20.00;99.90;;;;;;5053588;28;20606;-87
2021/08/12 07:08:18;;;;;;;12.73;9.20;;;20.20;99.90;;;;;;5044204;28;20611;-87
2021/08/12 07:10:46;;;;;;;10.20;8.53;;;20.40;99.90;;;;;;5033171;28;20619;-88
2021/08/12 07:13:13;;;;;;;10.47;8.80;;;20.50;99.90;;;;;;5033197;28;20617;-88
2021/08/12 07:15:40;;;;;;;9.53;7.20;;;20.40;99.90;;;;;;5032159;28;21023;-87
2021/08/12 07:18:07;;;;;;;7.83;7.03;;;20.30;99.90;;;;;;5032652;28;20631;-88
2021/08/12 07:20:36;;;;;;;10.40;8.03;;;20.40;99.90;;;;;;5033486;28;20607;-87
2021/08/12 07:23:04;;;;;;;7.63;6.93;;;20.40;99.90;;;;;;5033106;28;21208;-88
2021/08/12 07:25:31;;;;;;;7.83;7.03;;;20.60;99.90;;;;;;5033584;28;20960;-87
2021/08/12 07:27:59;;;;;;;7.50;6.80;;;20.80;99.90;;;;;;5046365;28;20617;-88
2021/08/12 07:30:26;;;;;;;6.93;6.33;;;20.90;99.90;;;;;;5046538;28;20863;-88
2021/08/12 07:32:53;;;;;;;7.77;6.90;;;20.90;99.60;;;;;;5052851;28;20614;-88
2021/08/12 07:35:21;;;;;;;8.10;7.30;;;21.20;99.20;;;;;;5052186;28;20628;-87
2021/08/12 07:37:48;;;;;;;9.00;7.90;;;21.30;99.10;;;;;;5052584;28;20659;-88
2021/08/12 07:40:16;;;;;;;8.87;7.20;;;21.10;99.30;;;;;;5048742;28;20618;-88
2021/08/12 07:42:43;;;;;;;12.07;6.97;;;21.30;98.60;;;;;;5053574;28;20655;-88
2021/08/12 07:45:12;;;;;;;7.63;6.90;;;21.30;98.80;;;;;;5052859;28;20626;-87
2021/08/12 07:47:39;;;;;;;10.68;7.70;;;21.20;98.60;;;;;;5052254;28;21101;-86
2021/08/12 07:50:11;;;;;;;9.17;7.20;;;21.40;98.90;;;;;;5053142;28;20572;-88
2021/08/12 07:52:42;;;;;;;11.10;8.80;;;21.40;99.10;;;;;;5052909;28;20647;-87
2021/08/12 07:55:10;;;;;;;8.87;8.00;;;21.50;98.70;;;;;;5053103;28;20925;-87
2021/08/12 07:57:37;;;;;;;8.43;7.30;;;21.70;98.70;;;;;;5052682;28;20629;-88
2021/08/12 08:00:05;;;;;;;7.07;6.33;;;21.90;97.80;;;;;;5051536;28;20979;-87
2021/08/12 08:02:43;;;;;;;9.13;6.90;;;21.90;98.10;;;;;;5048680;28;20641;-88
2021/08/12 08:05:13;;;;;;;8.13;7.33;;;22.10;97.30;;;;;;5044015;28;21055;-87
2021/08/12 08:07:40;;;;;;;8.10;6.80;;;22.20;98.00;;;;;;5041846;28;20740;-86
2021/08/12 08:10:08;;;;;;;8.60;7.20;;;22.10;97.60;;;;;;5041998;28;20745;-87
2021/08/12 08:12:35;;;;;;;7.70;6.90;;;22.10;97.80;;;;;;5029219;28;20745;-86
2021/08/12 08:15:03;;;;;;;7.97;7.27;;;22.20;97.70;;;;;;5029273;28;20202;-87
2021/08/12 08:17:30;;;;;;;8.47;6.33;;;22.40;97.60;;;;;;5029765;28;20640;-87
2021/08/12 08:19:59;;;;;;;11.37;6.80;;;22.60;98.40;;;;;;5029467;28;20739;-87
2021/08/12 08:22:26;;;;;;;7.03;6.40;;;22.80;97.20;;;;;;5029903;28;20661;-86
2021/08/12 08:24:53;;;;;;;7.50;6.73;;;22.90;96.60;;;;;;5031168;28;20626;-86
2021/08/12 08:27:20;;;;;;;6.57;5.97;;;23.00;96.80;;;;;;5039089;28;20677;-86
2021/08/12 08:29:47;;;;;;;6.77;6.17;;;23.10;96.20;;;;;;5051882;28;20965;-88
2021/08/12 08:32:15;;;;;;;8.17;6.90;;;23.20;95.40;;;;;;5051385;28;20977;-86
2021/08/12 08:34:42;;;;;;;6.17;5.67;;;23.40;95.30;;;;;;5052516;28;20604;-86
2021/08/12 08:37:11;;;;;;;6.70;6.10;;;23.50;95.70;;;;;;5051987;28;20592;-86
2021/08/12 08:39:38;;;;;;;7.03;6.20;;;23.60;94.50;;;;;;5051613;28;21058;-89
2021/08/12 08:42:07;;;;;;;8.60;7.13;;;23.60;94.50;;;;;;5051309;28;20617;-87
2021/08/12 08:44:35;;;;;;;9.90;6.10;;;23.70;93.70;;;;;;5051993;28;20614;-89
2021/08/12 08:47:04;;;;;;;12.10;6.80;;;23.80;94.40;;;;;;5051552;28;21193;-87
2021/08/12 08:49:32;;;;;;;7.70;7.00;;;24.00;94.40;;;;;;5051833;28;20598;-88
2021/08/12 08:52:00;;;;;;;7.70;6.30;;;24.10;93.00;;;;;;5051410;28;20618;-86
2021/08/12 08:54:29;;;;;;;7.50;6.73;;;24.20;93.10;;;;;;5052279;28;20606;-87
2021/08/12 08:56:56;;;;;;;12.27;6.30;;;24.30;93.50;;;;;;5052469;28;20636;-86
2021/08/12 08:59:23;;;;;;;9.73;6.30;;;24.40;94.10;;;;;;5051956;28;20784;-87
2021/08/12 09:01:50;;;;;;;7.17;5.93;;;24.60;93.20;;;;;;5051442;28;20606;-89
2021/08/12 09:04:17;;;;;;;6.90;6.30;;;24.70;92.80;;;;;;5051755;28;20626;-88
2021/08/12 09:06:44;;;;;;;8.63;6.80;;;24.70;93.00;;;;;;5051766;28;21143;-87
2021/08/12 09:09:12;;;;;;;6.87;6.17;;;24.70;93.20;;;;;;5051563;28;20613;-86
2021/08/12 09:11:40;;;;;;;7.40;6.60;;;24.70;93.00;;;;;;5051320;28;20624;-87
2021/08/12 09:14:32;;;;;;;7.70;6.10;;;24.80;93.00;;;;;;5051592;28;20650;-87
2021/08/12 09:17:00;;;;;;;7.87;5.90;;;24.80;93.50;;;;;;5051242;28;20673;-88
2021/08/12 09:19:31;;;;;;;8.83;7.10;;;25.00;92.70;;;;;;5050262;28;20638;-91
2021/08/12 09:21:59;;;;;;;7.53;6.47;;;25.10;92.90;;;;;;5050732;28;20740;-89
2021/08/12 09:24:26;;;;;;;10.80;6.90;;;25.20;91.60;;;;;;5051441;28;20618;-86
2021/08/12 09:26:55;;;;;;;8.50;6.33;;;25.30;92.30;;;;;;5046576;28;20673;-85
2021/08/12 09:29:39;;;;;;;7.03;6.40;;;25.30;91.60;;;;;;5128512;27;20849;-86
2021/08/12 09:32:07;;;;;;;6.60;6.00;;;25.60;91.30;;;;;;5127663;27;20615;-87
2021/08/12 09:34:41;;;;;;;6.67;6.07;;;25.70;90.90;;;;;;5128771;27;21159;-85
2021/08/12 09:37:09;;;;;;;6.73;6.10;;;25.70;90.90;;;;;;5128734;27;20646;-85
2021/08/12 09:39:36;;;;;;;6.73;6.03;;;25.80;90.80;;;;;;5128705;27;20616;-88
2021/08/12 09:42:05;;;;;;;9.47;6.97;;;26.00;90.50;;;;;;5128328;27;20619;-87
2021/08/12 09:44:44;;;;;;;6.73;6.17;;;26.10;89.50;;;;;;5127757;27;20647;-84
2021/08/12 09:47:14;;;;;;;7.57;6.40;;;26.10;88.40;;;;;;5128743;27;20655;-87
2021/08/12 09:49:46;;;;;;;5.80;5.30;;;26.10;90.20;;;;;;5128317;27;21121;-90
2021/08/12 09:52:22;;;;;;;7.10;6.43;;;26.20;88.10;;;;;;5128066;27;20603;-83
2021/08/12 09:54:57;;;;;;;7.03;5.83;;;26.40;89.40;;;;;;5127794;27;20614;-84
2021/08/12 09:57:25;;;;;;;6.57;5.90;;;26.30;90.10;;;;;;5128519;27;20679;-85
2021/08/12 09:59:57;;;;;;;8.77;6.30;;;26.40;89.10;;;;;;5128094;27;20618;-89
2021/08/12 10:02:30;;;;;;;10.40;5.80;;;26.50;87.70;;;;;;5127438;27;20734;-85
2021/08/12 10:05:04;;;;;;;6.00;5.50;;;26.60;86.20;;;;;;5127423;27;20668;-85
2021/08/12 10:07:39;;;;;;;6.60;6.07;;;26.70;85.50;;;;;;5125894;27;20615;-85
2021/08/12 10:10:18;;;;;;;6.20;5.60;;;26.90;85.60;;;;;;5127671;27;20650;-84
2021/08/12 10:12:47;;;;;;;7.13;5.77;;;27.10;86.50;;;;;;5127686;27;20607;-84
2021/08/12 10:15:19;;;;;;;6.83;6.23;;;27.10;83.70;;;;;;5126357;27;20675;-85
2021/08/12 10:17:47;;;;;;;5.70;5.30;;;27.20;83.00;;;;;;5125551;28;20635;-84
2021/08/12 10:20:18;;;;;;;9.20;5.67;;;27.20;84.20;;;;;;5126197;27;20615;-85
2021/08/12 10:22:47;;;;;;;6.40;5.90;;;27.00;84.60;;;;;;5127019;27;21219;-84
2021/08/12 10:25:15;;;;;;;8.57;5.83;;;27.10;82.30;;;;;;5127606;27;20625;-85
2021/08/12 10:27:43;;;;;;;6.03;5.43;;;26.80;85.70;;;;;;5118005;28;21120;-85
2021/08/12 10:30:11;;;;;;;6.20;5.70;;;26.90;80.60;;;;;;5127332;27;21268;-85
2021/08/12 10:32:46;;;;;;;6.80;6.10;;;27.20;82.10;;;;;;5127312;27;20630;-86
2021/08/12 10:35:14;;;;;;;6.17;5.70;;;27.40;79.60;;;;;;5128338;27;20618;-86
2021/08/12 10:37:41;;;;;;;9.70;6.60;;;27.40;78.50;;;;;;5130246;27;20621;-86
2021/08/12 10:40:12;;;;;;;8.13;6.60;;;27.30;81.00;;;;;;5120637;27;20933;-90
2021/08/12 10:42:49;;;;;;;6.73;6.00;;;27.60;75.90;;;;;;5113443;28;20730;-87
2021/08/12 10:45:19;;;;;;;7.23;6.53;;;27.80;77.20;;;;;;5113654;28;20697;-86
2021/08/12 10:47:52;;;;;;;7.30;6.63;;;28.10;75.80;;;;;;5112302;28;20627;-86
2021/08/12 10:50:31;;;;;;;7.43;6.13;;;28.10;77.50;;;;;;5112813;28;20620;-87
2021/08/12 10:53:18;;;;;;;7.13;6.53;;;28.30;75.80;;;;;;5111209;28;20623;-84
2021/08/12 10:56:03;;;;;;;8.00;7.30;;;28.40;81.60;;;;;;5115211;28;20604;-88
2021/08/12 10:58:44;;;;;;;6.50;6.00;;;28.40;78.50;;;;;;5113438;28;21190;-86
2021/08/12 11:01:12;;;;;;;6.70;6.20;;;28.40;77.10;;;;;;5113489;28;20620;-86
2021/08/12 11:03:47;;;;;;;8.47;7.70;;;28.40;79.20;;;;;;5112626;28;20614;-86
2021/08/12 11:06:17;;;;;;;7.80;7.20;;;28.30;81.20;;;;;;5101164;28;20724;-87
2021/08/12 11:09:02;;;;;;;8.40;7.70;;;28.20;79.70;;;;;;5113115;27;20774;-86
2021/08/12 11:11:54;;;;;;;7.90;7.13;;;28.20;79.30;;;;;;5112603;27;20659;-88
2021/08/12 11:14:57;;;;;;;7.53;6.93;;;28.00;80.20;;;;;;5111552;28;20629;-87
2021/08/12 11:17:24;;;;;;;7.27;6.67;;;28.10;79.20;;;;;;5108391;28;20626;-88
2021/08/12 11:19:57;;;;;;;8.23;7.43;;;28.40;79.70;;;;;;5110562;28;20628;-87
2021/08/12 11:22:39;;;;;;;7.40;6.80;;;28.60;78.90;;;;;;5112513;28;20615;-87
2021/08/12 11:25:09;;;;;;;7.70;7.00;;;28.80;77.50;;;;;;5112820;28;20661;-86
2021/08/12 11:27:44;;;;;;;7.70;6.63;;;28.70;77.00;;;;;;5107380;28;21030;-87
2021/08/12 11:30:49;;;;;;;7.07;6.57;;;28.90;80.00;;;;;;5100026;28;20608;-87
2021/08/12 11:33:33;;;;;;;7.57;6.90;;;29.10;75.10;;;;;;5103527;28;20636;-86
2021/08/12 11:36:19;;;;;;;7.40;6.73;;;28.80;78.30;;;;;;5109796;28;20665;-87
2021/08/12 11:38:55;;;;;;;8.20;7.40;;;28.80;80.00;;;;;;5112402;28;21263;-87
2021/08/12 11:41:23;;;;;;;9.73;7.40;;;28.70;78.10;;;;;;5110852;28;20688;-87
2021/08/12 11:43:51;;;;;;;7.97;7.20;;;28.80;77.40;;;;;;5108852;28;21229;-86
2021/08/12 11:46:19;;;;;;;8.57;7.57;;;28.90;79.40;;;;;;5110420;28;20655;-87
2021/08/12 11:48:46;;;;;;;9.63;8.13;;;29.20;77.80;;;;;;5112130;28;20639;-87
2021/08/12 11:51:15;;;;;;;9.23;7.37;;;29.90;77.30;;;;;;5109295;28;21277;-88
2021/08/12 11:53:44;;;;;;;7.50;6.90;;;30.60;73.70;;;;;;5099500;28;20672;-88
2021/08/12 11:56:20;;;;;;;7.77;7.20;;;31.20;69.10;;;;;;5111943;28;20614;-87
2021/08/12 11:58:49;;;;;;;7.37;6.67;;;31.50;69.90;;;;;;5098492;28;20628;-87
2021/08/12 12:01:17;;;;;;;8.70;8.00;;;31.80;66.00;;;;;;5099444;28;20600;-87
2021/08/12 12:03:47;;;;;;;7.97;7.37;;;31.60;67.70;;;;;;5103463;28;20616;-87
2021/08/12 12:06:30;;;;;;;8.17;7.47;;;31.00;70.60;;;;;;5111817;28;20706;-88
2021/08/12 12:08:57;;;;;;;9.03;7.53;;;31.00;71.00;;;;;;5112036;28;20728;-88
2021/08/12 12:11:24;;;;;;;7.27;6.77;;;31.30;68.10;;;;;;5110766;28;20939;-88
2021/08/12 12:13:52;;;;;;;8.07;7.37;;;32.00;68.60;;;;;;5109734;28;20608;-88
2021/08/12 12:16:20;;;;;;;7.30;6.70;;;32.30;69.20;;;;;;5110640;28;20616;-88
2021/08/12 12:18:47;;;;;;;9.50;8.70;;;32.10;68.50;;;;;;5110023;28;20604;-88
2021/08/12 12:21:15;;;;;;;7.57;7.07;;;32.60;68.80;;;;;;5110094;28;20622;-88
2021/08/12 12:23:49;;;;;;;8.20;7.40;;;33.70;63.70;;;;;;5110168;28;20620;-88
2021/08/12 12:26:20;;;;;;;7.47;6.50;;;34.70;59.20;;;;;;5111084;28;20770;-88
2021/08/12 12:28:49;;;;;;;8.07;7.37;;;35.30;58.10;;;;;;5099208;28;21163;-88
2021/08/12 12:31:17;;;;;;;7.80;7.20;;;35.00;57.10;;;;;;5108893;28;20623;-88
2021/08/12 12:33:45;;;;;;;7.80;7.10;;;35.20;58.40;;;;;;5111428;28;20615;-89
2021/08/12 12:36:13;;;;;;;7.53;6.90;;;35.00;57.00;;;;;;5111338;28;20727;-89
2021/08/12 12:38:41;;;;;;;9.20;8.40;;;34.80;58.50;;;;;;5111240;28;20643;-89
2021/08/12 12:41:11;;;;;;;7.33;6.83;;;35.10;56.70;;;;;;5111226;28;20607;-88
2021/08/12 12:43:39;;;;;;;7.63;7.03;;;35.10;55.50;;;;;;5110060;28;20618;-88
2021/08/12 12:46:06;;;;;;;7.17;6.67;;;34.50;55.20;;;;;;5111353;28;20624;-89
2021/08/12 12:48:35;;;;;;;7.40;6.90;;;33.80;60.10;;;;;;5111306;28;20669;-88
2021/08/12 12:51:04;;;;;;;6.90;6.33;;;33.90;57.10;;;;;;5110920;28;21324;-89
2021/08/12 12:53:33;;;;;;;7.00;6.50;;;34.00;58.40;;;;;;5110350;28;20626;-88
2021/08/12 12:56:00;;;;;;;7.53;6.53;;;35.20;56.80;;;;;;5110326;28;20635;-87
2021/08/12 12:58:34;;;;;;;6.90;6.40;;;35.00;51.10;;;;;;5110333;28;20739;-88